createdAt,value
2023-01-08T00:01:14.065Z,6.97
2023-01-08T00:03:44.415Z,6.97
2023-01-08T00:06:16.897Z,7.40
2023-01-08T00:08:46.742Z,8.00
2023-01-08T00:11:16.501Z,8.80
2023-01-08T00:13:45.824Z,8.32
2023-01-08T00:16:17.796Z,8.00
2023-01-08T00:18:48.197Z,8.30
2023-01-08T00:21:17.298Z,8.32
2023-01-08T00:23:47.434Z,7.82
2023-01-08T00:26:16.620Z,8.90
2023-01-08T00:28:45.679Z,13.70
2023-01-08T00:31:15.070Z,11.07
2023-01-08T00:33:54.736Z,11.13
2023-01-08T00:36:24.095Z,9.90
2023-01-08T00:38:56.002Z,19.02
2023-01-08T00:41:25.547Z,15.80
2023-01-08T00:43:55.025Z,10.80
2023-01-08T00:46:24.474Z,10.32
2023-01-08T00:48:53.425Z,19.88
2023-01-08T00:51:22.875Z,22.93
2023-01-08T00:53:52.176Z,11.85
2023-01-08T00:56:31.630Z,26.23
2023-01-08T00:59:01.084Z,10.43
2023-01-08T01:01:30.956Z,9.83
2023-01-08T01:04:00.453Z,9.60
2023-01-08T01:06:29.831Z,8.10
2023-01-08T01:08:59.177Z,7.30
2023-01-08T01:11:29.384Z,7.83
2023-01-08T01:13:59.378Z,9.05
2023-01-08T01:16:40.472Z,10.38
2023-01-08T01:19:10.036Z,9.20
2023-01-08T01:21:39.725Z,7.13
2023-01-08T01:24:11.539Z,7.40
2023-01-08T01:26:45.361Z,8.40
2023-01-08T01:29:25.787Z,11.40
2023-01-08T01:31:59.742Z,15.60
2023-01-08T01:34:30.798Z,10.10
2023-01-08T01:37:00.579Z,8.48
2023-01-08T01:39:29.984Z,7.70
2023-01-08T01:41:59.570Z,6.38
2023-01-08T01:44:38.688Z,6.28
2023-01-08T01:47:32.701Z,6.85
2023-01-08T01:50:15.065Z,12.00
2023-01-08T01:52:51.631Z,7.07
2023-01-08T01:55:20.865Z,7.03
2023-01-08T01:57:58.611Z,9.57
2023-01-08T02:00:37.918Z,6.78
2023-01-08T02:03:14.825Z,10.07
2023-01-08T02:05:56.808Z,7.05
2023-01-08T02:08:46.153Z,11.25
2023-01-08T02:11:43.392Z,8.60
2023-01-08T02:14:12.759Z,6.35
2023-01-08T02:17:00.523Z,8.35
2023-01-08T02:19:41.945Z,9.98
2023-01-08T02:22:53.006Z,8.63
2023-01-08T02:25:38.325Z,10.75
2023-01-08T02:28:13.057Z,17.35
2023-01-08T02:30:48.569Z,10.00
2023-01-08T02:33:18.115Z,12.05
2023-01-08T02:35:56.117Z,12.85
2023-01-08T02:38:26.913Z,12.80
2023-01-08T02:41:08.624Z,10.35
2023-01-08T02:43:54.496Z,9.82
2023-01-08T02:46:31.723Z,9.68
2023-01-08T02:49:10.714Z,9.63
2023-01-08T02:51:52.543Z,16.17
2023-01-08T02:54:35.891Z,16.10
2023-01-08T02:57:15.936Z,12.00
2023-01-08T02:59:47.083Z,21.08
2023-01-08T03:02:19.478Z,17.65
2023-01-08T03:05:00.783Z,19.00
2023-01-08T03:07:32.068Z,24.85
2023-01-08T03:10:08.040Z,29.30
2023-01-08T03:13:03.472Z,19.53
2023-01-08T03:15:41.590Z,21.88
2023-01-08T03:18:20.088Z,30.35
2023-01-08T03:20:51.512Z,45.03
2023-01-08T03:23:23.793Z,51.75
2023-01-08T03:25:53.158Z,57.40
2023-01-08T03:28:30.830Z,28.48
2023-01-08T03:31:01.930Z,28.67
2023-01-08T03:33:33.273Z,24.83
2023-01-08T03:36:05.843Z,59.38
2023-01-08T03:38:48.135Z,29.98
2023-01-08T03:41:21.967Z,18.52
2023-01-08T03:43:51.252Z,34.13
2023-01-08T03:46:27.394Z,34.13
2023-01-08T03:49:05.757Z,59.80
2023-01-08T03:51:45.086Z,28.27
2023-01-08T03:54:30.305Z,27.80
2023-01-08T03:57:04.665Z,20.65
2023-01-08T03:59:34.140Z,22.92
2023-01-08T04:02:16.141Z,27.73
2023-01-08T04:04:45.496Z,15.88
2023-01-08T04:07:15.033Z,13.82
2023-01-08T04:09:44.291Z,34.65
2023-01-08T04:12:24.812Z,44.67
2023-01-08T04:14:54.544Z,28.88
2023-01-08T04:17:34.024Z,39.35
2023-01-08T04:20:09.073Z,33.38
2023-01-08T04:22:38.176Z,28.38
2023-01-08T04:25:08.077Z,27.40
2023-01-08T04:27:37.669Z,41.20
2023-01-08T04:30:07.716Z,28.10
2023-01-08T04:32:46.820Z,28.02
2023-01-08T04:35:16.243Z,38.53
2023-01-08T04:37:45.279Z,34.03
2023-01-08T04:40:14.704Z,19.60
2023-01-08T04:42:45.427Z,17.55
2023-01-08T04:45:14.988Z,20.15
2023-01-08T04:47:58.927Z,19.08
2023-01-08T04:50:28.547Z,25.58
2023-01-08T04:53:07.580Z,21.42
2023-01-08T04:55:39.028Z,24.50
2023-01-08T04:58:13.572Z,18.90
2023-01-08T05:00:43.080Z,47.83
2023-01-08T05:03:13.033Z,19.27
2023-01-08T05:05:42.762Z,25.45
2023-01-08T05:08:12.033Z,22.60
2023-01-08T05:10:41.102Z,22.67
2023-01-08T05:13:11.080Z,22.02
2023-01-08T05:15:40.326Z,32.25
2023-01-08T05:18:19.594Z,39.60
2023-01-08T05:20:51.275Z,49.90
2023-01-08T05:23:21.101Z,35.58
2023-01-08T05:25:50.229Z,29.10
2023-01-08T05:28:20.103Z,50.47
2023-01-08T05:30:50.636Z,39.25
2023-01-08T05:33:26.124Z,21.63
2023-01-08T05:35:56.868Z,32.88
2023-01-08T05:38:26.215Z,94.65
2023-01-08T05:41:00.719Z,58.35
2023-01-08T05:43:30.891Z,38.60
2023-01-08T05:46:01.364Z,50.90
2023-01-08T05:48:40.986Z,53.17
2023-01-08T05:51:10.293Z,39.70
2023-01-08T05:53:45.166Z,38.60
2023-01-08T05:56:15.510Z,46.58
2023-01-08T05:58:44.966Z,37.78
2023-01-08T06:01:18.804Z,57.90
2023-01-08T06:03:56.985Z,42.40
2023-01-08T06:06:26.562Z,38.25
2023-01-08T06:08:55.978Z,32.95
2023-01-08T06:11:25.614Z,57.63
2023-01-08T06:13:55.165Z,54.15
2023-01-08T06:16:29.579Z,42.00
2023-01-08T06:18:59.155Z,24.88
2023-01-08T06:21:28.281Z,34.67
2023-01-08T06:23:57.594Z,25.27
2023-01-08T06:26:27.130Z,30.85
2023-01-08T06:28:56.798Z,31.40
2023-01-08T06:31:26.416Z,48.95
2023-01-08T06:33:56.100Z,39.22
2023-01-08T06:36:25.308Z,36.35
2023-01-08T06:39:07.341Z,35.53
2023-01-08T06:41:36.841Z,42.75
2023-01-08T06:44:06.186Z,29.67
2023-01-08T06:46:40.972Z,26.08
2023-01-08T06:49:10.875Z,24.83
2023-01-08T06:51:40.295Z,20.17
2023-01-08T06:54:15.274Z,27.55
2023-01-08T06:56:54.035Z,16.48
2023-01-08T06:59:25.020Z,20.85
2023-01-08T07:01:55.512Z,18.23
2023-01-08T07:04:25.830Z,18.52
2023-01-08T07:06:55.355Z,28.38
2023-01-08T07:09:30.297Z,13.15
2023-01-08T07:12:07.114Z,32.63
2023-01-08T07:14:36.543Z,13.02
2023-01-08T07:17:06.608Z,59.58
2023-01-08T07:19:35.963Z,10.65
2023-01-08T07:22:05.336Z,13.00
2023-01-08T07:24:34.989Z,11.40
2023-01-08T07:27:04.941Z,18.77
2023-01-08T07:29:34.353Z,16.17
2023-01-08T07:32:08.476Z,15.82
2023-01-08T07:34:48.039Z,13.32
2023-01-08T07:37:18.118Z,16.45
2023-01-08T07:39:57.586Z,11.65
2023-01-08T07:42:26.714Z,9.10
2023-01-08T07:45:03.948Z,14.37
2023-01-08T07:47:34.490Z,13.73
2023-01-08T07:50:04.313Z,17.95
2023-01-08T07:52:34.015Z,11.77
2023-01-08T07:55:08.983Z,10.44
2023-01-08T07:57:38.929Z,12.55
2023-01-08T08:00:15.216Z,11.85
2023-01-08T08:02:49.454Z,33.13
2023-01-08T08:05:26.933Z,11.73
2023-01-08T08:07:58.046Z,17.08
2023-01-08T08:13:02.127Z,11.70
2023-01-08T08:15:41.836Z,11.15
2023-01-08T08:18:17.459Z,10.30
2023-01-08T08:20:47.758Z,15.32
2023-01-08T08:23:17.192Z,22.70
2023-01-08T08:25:46.532Z,10.55
2023-01-08T08:28:16.331Z,9.63
2023-01-08T08:30:45.575Z,11.38
2023-01-08T08:33:15.167Z,21.63
2023-01-08T08:35:50.499Z,17.88
2023-01-08T08:38:21.090Z,13.40
2023-01-08T08:40:52.432Z,9.70
2023-01-08T08:43:21.984Z,10.18
2023-01-08T08:45:57.471Z,8.77
2023-01-08T08:48:27.456Z,9.43
2023-01-08T08:51:01.484Z,14.05
2023-01-08T08:53:36.574Z,11.90
2023-01-08T08:56:15.772Z,14.57
2023-01-08T08:58:45.899Z,12.23
2023-01-08T09:01:20.878Z,14.60
2023-01-08T09:03:51.454Z,19.20
2023-01-08T09:06:21.414Z,12.07
2023-01-08T09:08:52.055Z,12.25
2023-01-08T09:11:22.306Z,23.48
2023-01-08T09:13:51.980Z,18.83
2023-01-08T09:16:21.565Z,13.98
2023-01-08T09:18:51.483Z,11.38
2023-01-08T09:21:30.980Z,21.23
2023-01-08T09:24:03.609Z,13.77
2023-01-08T09:26:42.910Z,9.88
2023-01-08T09:29:12.147Z,14.77
2023-01-08T09:31:51.572Z,12.02
2023-01-08T09:34:21.182Z,11.43
2023-01-08T09:36:57.098Z,10.98
2023-01-08T09:39:31.594Z,11.50
2023-01-08T09:42:04.617Z,13.82
2023-01-08T09:44:43.753Z,12.40
2023-01-08T09:47:33.440Z,12.75
2023-01-08T09:50:08.160Z,11.30
2023-01-08T09:52:43.799Z,12.35
2023-01-08T09:55:19.354Z,12.93
2023-01-08T09:57:49.628Z,13.50
2023-01-08T10:00:29.230Z,14.95
2023-01-08T10:03:12.910Z,19.23
2023-01-08T10:05:42.323Z,11.77
2023-01-08T10:08:14.657Z,14.07
2023-01-08T10:10:46.298Z,14.70
2023-01-08T10:13:16.731Z,13.55
2023-01-08T10:15:46.933Z,10.80
2023-01-08T10:18:20.098Z,40.78
2023-01-08T10:21:00.588Z,14.43
2023-01-08T10:23:30.306Z,14.90
2023-01-08T10:26:04.011Z,13.65
2023-01-08T10:28:38.463Z,15.45
2023-01-08T10:31:17.000Z,18.73
2023-01-08T10:33:49.719Z,14.68
2023-01-08T10:36:31.035Z,14.66
2023-01-08T10:39:02.832Z,19.00
2023-01-08T10:41:37.706Z,13.20
2023-01-08T10:44:16.043Z,12.10
2023-01-08T10:46:48.695Z,13.47
2023-01-08T10:49:28.901Z,14.10
2023-01-08T10:51:58.950Z,17.27
2023-01-08T10:54:41.836Z,13.70
2023-01-08T10:57:29.741Z,13.85
2023-01-08T10:59:59.590Z,18.65
2023-01-08T11:02:39.467Z,18.63
2023-01-08T11:05:13.038Z,19.33
2023-01-08T11:07:52.819Z,16.90
2023-01-08T11:10:27.257Z,16.63
2023-01-08T11:13:07.823Z,16.95
2023-01-08T11:15:39.750Z,24.20
2023-01-08T11:18:18.918Z,21.73
2023-01-08T11:21:18.575Z,33.92
2023-01-08T11:24:40.160Z,17.67
2023-01-08T11:27:30.441Z,15.27
2023-01-08T11:30:07.941Z,30.90
2023-01-08T11:32:49.581Z,18.38
2023-01-08T11:35:39.799Z,16.30
2023-01-08T11:38:13.281Z,16.60
2023-01-08T11:41:09.964Z,15.38
2023-01-08T11:44:01.772Z,15.00
2023-01-08T11:46:38.767Z,15.02
2023-01-08T11:49:18.210Z,14.68
2023-01-08T11:52:17.187Z,12.50
2023-01-08T11:55:02.933Z,13.10
2023-01-08T11:57:54.273Z,13.40
2023-01-08T12:00:39.451Z,12.70
2023-01-08T12:03:29.691Z,12.30
2023-01-08T12:06:21.587Z,13.15
2023-01-08T12:09:09.690Z,11.43
2023-01-08T12:11:58.665Z,13.55
2023-01-08T12:14:48.522Z,12.02
2023-01-08T12:24:34.416Z,10.32
2023-01-08T12:30:37.020Z,12.18
2023-01-08T12:36:31.556Z,10.15
2023-01-08T12:39:11.983Z,9.25
2023-01-08T12:41:55.290Z,10.80
2023-01-08T12:44:30.633Z,11.10
2023-01-08T12:47:04.946Z,11.10
2023-01-08T12:49:43.711Z,11.10
2023-01-08T12:52:21.653Z,10.25
2023-01-08T12:55:17.724Z,10.50
2023-01-08T12:58:09.238Z,11.60
2023-01-08T13:00:57.261Z,10.82
2023-01-08T13:03:30.905Z,10.68
2023-01-08T13:06:10.564Z,9.80
2023-01-08T13:08:54.504Z,10.57
2023-01-08T13:11:38.942Z,9.63
2023-01-08T13:14:14.293Z,11.38
2023-01-08T13:17:04.405Z,10.95
2023-01-08T13:19:52.231Z,13.20
2023-01-08T13:22:35.295Z,9.75
2023-01-08T13:25:27.643Z,10.65
2023-01-08T13:28:28.879Z,10.05
2023-01-08T13:31:25.180Z,10.63
2023-01-08T13:33:56.143Z,11.85
2023-01-08T13:36:27.905Z,11.43
2023-01-08T13:39:02.885Z,11.70
2023-01-08T13:44:58.507Z,10.80
2023-01-08T13:47:44.232Z,16.38
2023-01-08T13:50:22.029Z,11.93
2023-01-08T13:53:03.457Z,12.80
2023-01-08T13:55:41.518Z,11.07
2023-01-08T13:58:22.056Z,10.38
2023-01-08T14:01:03.836Z,11.23
2023-01-08T14:03:50.972Z,13.27
2023-01-08T14:06:23.509Z,12.40
2023-01-08T14:09:04.975Z,17.36
2023-01-08T14:11:47.311Z,12.85
2023-01-08T14:14:19.459Z,12.90
2023-01-08T14:16:53.048Z,11.45
2023-01-08T14:19:26.409Z,11.48
2023-01-08T14:21:59.734Z,11.02
2023-01-08T14:24:29.557Z,15.30
2023-01-08T14:27:00.940Z,11.90
2023-01-08T14:29:45.929Z,12.23
2023-01-08T14:32:22.632Z,10.75
2023-01-08T14:34:54.707Z,10.88
2023-01-08T14:37:27.764Z,10.45
2023-01-08T14:40:00.509Z,10.32
2023-01-08T14:42:47.592Z,9.63
2023-01-08T14:45:29.063Z,23.13
2023-01-08T14:48:23.359Z,11.85
2023-01-08T14:51:07.121Z,11.98
2023-01-08T14:53:41.592Z,11.77
2023-01-08T14:56:25.947Z,12.88
2023-01-08T14:58:56.470Z,11.02
2023-01-08T15:01:36.268Z,12.85
2023-01-08T15:04:07.805Z,13.07
2023-01-08T15:06:39.368Z,63.35
2023-01-08T15:09:25.921Z,10.98
2023-01-08T15:12:08.112Z,10.35
2023-01-08T15:14:44.922Z,40.03
2023-01-08T15:17:20.868Z,8.88
2023-01-08T15:19:59.888Z,13.48
2023-01-08T15:22:38.582Z,12.05
2023-01-08T15:25:31.473Z,11.73
2023-01-08T15:28:04.275Z,9.05
2023-01-08T15:30:43.634Z,10.53
2023-01-08T15:33:29.420Z,11.68
2023-01-08T15:36:05.553Z,11.48
2023-01-08T15:38:43.108Z,11.38
2023-01-08T15:41:43.028Z,10.30
2023-01-08T15:44:23.670Z,11.05
2023-01-08T15:47:04.589Z,8.88
2023-01-08T15:49:38.670Z,9.02
2023-01-08T15:52:11.612Z,9.65
2023-01-08T15:54:43.967Z,10.15
2023-01-08T15:57:25.610Z,22.17
2023-01-08T15:59:57.582Z,11.40
2023-01-08T16:02:30.615Z,9.02
2023-01-08T16:05:17.650Z,9.43
2023-01-08T16:07:47.570Z,8.60
2023-01-08T16:10:29.513Z,9.23
2023-01-08T16:13:02.808Z,14.43
2023-01-08T16:15:36.409Z,10.68
2023-01-08T16:18:12.189Z,9.20
2023-01-08T16:20:48.826Z,8.43
2023-01-08T16:23:26.575Z,7.43
2023-01-08T16:26:13.597Z,7.15
2023-01-08T16:28:45.337Z,7.75
2023-01-08T16:31:18.600Z,7.68
2023-01-08T16:33:54.494Z,7.75
2023-01-08T16:36:37.318Z,7.28
2023-01-08T16:39:19.902Z,7.78
2023-01-08T16:41:51.577Z,8.10
2023-01-08T16:44:36.603Z,8.35
2023-01-08T16:47:20.596Z,9.00
2023-01-08T16:49:53.647Z,9.55
2023-01-08T16:52:24.411Z,9.13
2023-01-08T16:55:02.995Z,14.27
2023-01-08T16:57:33.577Z,9.00
2023-01-08T17:00:18.161Z,8.52
2023-01-08T17:02:48.546Z,8.05
2023-01-08T17:05:26.606Z,9.02
2023-01-08T17:07:58.766Z,9.65
2023-01-08T17:10:40.555Z,8.80
2023-01-08T17:13:17.589Z,9.88
2023-01-08T17:16:00.047Z,8.73
2023-01-08T17:18:42.607Z,8.48
2023-01-08T17:21:18.747Z,8.65
2023-01-08T17:23:50.618Z,7.32
2023-01-08T17:26:21.063Z,6.95
2023-01-08T17:29:09.491Z,6.82
2023-01-08T17:31:40.867Z,7.13
2023-01-08T17:34:16.618Z,6.72
2023-01-08T17:37:01.614Z,7.30
2023-01-08T17:39:32.832Z,8.02
2023-01-08T17:42:22.161Z,7.47
2023-01-08T17:44:54.298Z,6.82
2023-01-08T17:47:27.644Z,7.00
2023-01-08T17:50:03.784Z,8.32
2023-01-08T17:52:34.589Z,7.63
2023-01-08T17:55:22.901Z,7.50
2023-01-08T17:57:54.568Z,7.05
2023-01-08T18:00:25.568Z,7.00
2023-01-08T18:02:56.700Z,7.85
2023-01-08T18:05:37.061Z,7.10
2023-01-08T18:08:19.573Z,7.85
2023-01-08T18:10:55.600Z,7.40
2023-01-08T18:13:31.523Z,6.88
2023-01-08T18:16:16.619Z,7.82
2023-01-08T18:18:59.573Z,6.80
2023-01-08T18:21:35.741Z,7.30
2023-01-08T18:24:09.068Z,7.55
2023-01-08T18:26:47.590Z,6.93
2023-01-08T18:29:18.055Z,6.78
2023-01-08T18:31:52.681Z,6.40
2023-01-08T18:34:23.915Z,6.35
2023-01-08T18:37:04.324Z,6.03
2023-01-08T18:39:46.595Z,7.20
2023-01-08T18:42:28.581Z,6.15
2023-01-08T18:45:00.945Z,6.47
2023-01-08T18:47:34.802Z,6.13
2023-01-08T18:50:09.596Z,5.72
2023-01-08T18:52:50.977Z,5.30
2023-01-08T18:55:27.647Z,5.75
2023-01-08T18:58:06.313Z,5.18
2023-01-08T19:00:38.194Z,5.18
2023-01-08T19:03:14.818Z,6.05
2023-01-08T19:05:45.549Z,5.75
2023-01-08T19:08:24.586Z,6.10
2023-01-08T19:11:11.556Z,5.80
2023-01-08T19:13:47.046Z,5.80
2023-01-08T19:16:23.973Z,6.00
2023-01-08T19:18:59.579Z,6.60
2023-01-08T19:21:38.942Z,6.07
2023-01-08T19:24:09.988Z,6.25
2023-01-08T19:26:39.866Z,6.07
2023-01-08T19:29:10.534Z,6.88
2023-01-08T19:31:40.583Z,6.15
2023-01-08T19:34:12.600Z,5.53
2023-01-08T19:36:50.535Z,5.53
2023-01-08T19:39:23.378Z,5.22
2023-01-08T19:42:12.489Z,5.10
2023-01-08T19:44:42.501Z,5.90
2023-01-08T19:47:12.579Z,6.00
2023-01-08T19:49:49.596Z,6.18
2023-01-08T19:52:20.561Z,5.75
2023-01-08T19:54:51.480Z,5.35
2023-01-08T19:57:31.578Z,5.60
2023-01-08T20:00:01.966Z,5.80
2023-01-08T20:02:42.919Z,6.03
2023-01-08T20:05:23.582Z,6.03
2023-01-08T20:07:53.310Z,5.40
2023-01-08T20:10:23.819Z,6.18
2023-01-08T20:12:59.509Z,7.63
2023-01-08T20:15:35.555Z,6.73
2023-01-08T20:18:15.111Z,6.07
2023-01-08T20:21:07.517Z,5.32
2023-01-08T20:23:40.244Z,5.65
2023-01-08T20:26:17.623Z,6.07
2023-01-08T20:29:00.635Z,5.00
2023-01-08T20:31:40.423Z,5.80
2023-01-08T20:34:16.051Z,6.35
2023-01-08T20:36:50.437Z,6.65
2023-01-08T20:39:33.808Z,5.63
2023-01-08T20:42:12.329Z,6.72
2023-01-08T20:44:51.609Z,6.05
2023-01-08T20:47:28.862Z,5.60
2023-01-08T20:50:19.224Z,6.22
2023-01-08T20:52:56.540Z,5.40
2023-01-08T20:55:27.562Z,5.53
2023-01-08T20:57:57.215Z,4.95
2023-01-08T21:00:28.932Z,5.25
2023-01-08T21:02:58.415Z,4.70
2023-01-08T21:05:30.658Z,4.68
2023-01-08T21:08:05.597Z,5.43
2023-01-08T21:10:38.761Z,5.30
2023-01-08T21:13:08.849Z,5.93
2023-01-08T21:15:42.871Z,5.75
2023-01-08T21:18:24.852Z,5.32
2023-01-08T21:21:06.034Z,6.20
2023-01-08T21:23:40.012Z,5.90
2023-01-08T21:26:20.576Z,5.72
2023-01-08T21:28:51.563Z,5.85
2023-01-08T21:31:30.664Z,5.78
2023-01-08T21:34:02.878Z,5.80
2023-01-08T21:36:42.537Z,5.10
2023-01-08T21:39:13.040Z,6.68
2023-01-08T21:42:01.671Z,5.60
2023-01-08T21:44:57.259Z,5.90
2023-01-08T21:47:28.523Z,6.00
2023-01-08T21:49:57.867Z,5.20
2023-01-08T21:52:56.096Z,6.22
2023-01-08T21:55:25.816Z,5.50
2023-01-08T21:57:54.923Z,5.90
2023-01-08T22:00:25.393Z,5.03
2023-01-08T22:02:55.549Z,5.45
2023-01-08T22:05:27.398Z,6.00
2023-01-08T22:07:57.866Z,5.22
2023-01-08T22:10:27.126Z,5.60
2023-01-08T22:12:56.479Z,5.30
2023-01-08T22:15:26.046Z,5.50
2023-01-08T22:17:55.168Z,5.40
2023-01-08T22:20:24.334Z,5.57
2023-01-08T22:22:53.860Z,5.55
2023-01-08T22:25:23.207Z,5.72
2023-01-08T22:27:55.007Z,5.38
2023-01-08T22:30:30.095Z,4.68
2023-01-08T22:33:00.050Z,5.70
2023-01-08T22:35:29.670Z,5.93
2023-01-08T22:37:59.157Z,5.38
2023-01-08T22:40:28.733Z,5.97
2023-01-08T22:42:59.512Z,5.45
2023-01-08T22:45:30.208Z,5.63
2023-01-08T22:47:59.942Z,4.82
2023-01-08T22:50:30.371Z,5.65
2023-01-08T22:53:00.407Z,5.00
2023-01-08T22:55:29.785Z,5.70
2023-01-08T22:58:00.223Z,5.82
2023-01-08T23:00:29.930Z,5.43
2023-01-08T23:02:59.317Z,4.85
2023-01-08T23:05:38.870Z,4.85
2023-01-08T23:08:18.797Z,4.90
2023-01-08T23:10:48.037Z,4.47
2023-01-08T23:13:28.976Z,5.47
2023-01-08T23:15:58.582Z,5.70
2023-01-08T23:18:33.187Z,5.03
2023-01-08T23:21:19.403Z,5.55
2023-01-08T23:23:52.055Z,5.35
2023-01-08T23:26:32.043Z,4.90
2023-01-08T23:29:12.544Z,5.40
2023-01-08T23:31:44.476Z,6.25
2023-01-08T23:34:25.371Z,5.10
2023-01-08T23:36:55.657Z,4.93
2023-01-08T23:39:27.141Z,5.38
2023-01-08T23:41:57.251Z,6.07
2023-01-08T23:44:26.653Z,4.65
2023-01-08T23:46:55.881Z,4.95
2023-01-08T23:49:25.161Z,5.45
2023-01-08T23:51:59.945Z,5.82
2023-01-08T23:54:29.687Z,6.22
2023-01-08T23:56:59.827Z,5.82
2023-01-08T23:59:29.133Z,5.55
